Wetterdaten: Woche 28.04.14 - 04.05.14 (KW18)
Datum Zeit Temp. Aussen +5cm Feuchte Auss Luftdruck Regen Sonnenschein Regendauer UV Solar Windben
28.04.2014 00:00 9,6 C 7,9 C 96 % 1008,5 hPa 0,0 l/m 0,00 h 0,00 h 0,0 UV-I 0 W/m 0,0 km/h (0 Bft)
28.04.2014 01:00 10,2 C 8,8 C 96 % 1008,6 hPa 0,0 l/m 0,00 h 0,00 h 0,0 UV-I 0 W/m 0,0 km/h (0 Bft)
28.04.2014 02:00 10,0 C 8,5 C 96 % 1008,7 hPa 0,0 l/m 0,00 h 0,00 h 0,0 UV-I 0 W/m 0,0 km/h (0 Bft)
28.04.2014 03:00 9,7 C 8,3 C 97 % 1008,6 hPa 0,0 l/m 0,00 h 0,00 h 0,0 UV-I 0 W/m 0,1 km/h (0 Bft)
28.04.2014 04:00 9,0 C 7,4 C 97 % 1008,5 hPa 0,0 l/m 0,00 h 0,00 h 0,0 UV-I 0 W/m 0,0 km/h (0 Bft)
28.04.2014 05:00 8,6 C 7,3 C 98 % 1008,6 hPa 0,0 l/m 0,00 h 0,00 h 0,0 UV-I 0 W/m 0,0 km/h (0 Bft)
28.04.2014 06:00 9,0 C 8,0 C 98 % 1008,9 hPa 0,0 l/m 0,00 h 0,00 h 0,0 UV-I 12 W/m 0,0 km/h (0 Bft)
28.04.2014 07:00 9,7 C 9,2 C 98 % 1009,3 hPa 0,0 l/m 0,00 h 0,00 h 0,0 UV-I 53 W/m 0,0 km/h (0 Bft)
28.04.2014 08:00 11,0 C 10,9 C 96 % 1009,6 hPa 0,0 l/m 0,10 h 0,00 h 0,0 UV-I 140 W/m 0,2 km/h (0 Bft)
28.04.2014 09:00 12,9 C 13,1 C 87 % 1009,9 hPa 0,0 l/m 0,67 h 0,00 h 0,5 UV-I 293 W/m 0,1 km/h (0 Bft)
28.04.2014 10:00 14,1 C 14,4 C 81 % 1010,0 hPa 0,0 l/m 0,23 h 0,00 h 0,7 UV-I 309 W/m 1,8 km/h (1 Bft)
28.04.2014 11:00 15,5 C 16,2 C 76 % 1010,2 hPa 0,0 l/m 0,47 h 0,00 h 1,7 UV-I 461 W/m 3,9 km/h (1 Bft)
28.04.2014 12:00 16,8 C 17,8 C 70 % 1010,2 hPa 0,0 l/m 0,60 h 0,00 h 1,9 UV-I 444 W/m 5,4 km/h (1 Bft)
28.04.2014 13:00 17,0 C 17,5 C 66 % 1010,3 hPa 0,0 l/m 0,17 h 0,00 h 1,4 UV-I 350 W/m 5,6 km/h (1 Bft)
28.04.2014 14:00 17,7 C 18,6 C 63 % 1010,4 hPa 0,0 l/m 0,97 h 0,00 h 2,4 UV-I 538 W/m 7,0 km/h (2 Bft)
28.04.2014 15:00 17,5 C 18,2 C 63 % 1010,5 hPa 0,0 l/m 0,30 h 0,00 h 1,3 UV-I 369 W/m 9,9 km/h (2 Bft)
28.04.2014 16:00 16,6 C 16,4 C 65 % 1010,4 hPa 0,0 l/m 0,00 h 0,00 h 0,5 UV-I 194 W/m 5,9 km/h (2 Bft)
28.04.2014 17:00 16,6 C 16,2 C 66 % 1010,4 hPa 0,0 l/m 0,00 h 0,00 h 0,0 UV-I 182 W/m 6,7 km/h (2 Bft)
28.04.2014 18:00 16,2 C 15,4 C 68 % 1010,7 hPa 0,0 l/m 0,00 h 0,03 h 0,0 UV-I 123 W/m 7,3 km/h (2 Bft)
28.04.2014 19:00 15,3 C 14,1 C 72 % 1010,9 hPa 0,0 l/m 0,00 h 0,00 h 0,0 UV-I 65 W/m 7,1 km/h (2 Bft)
28.04.2014 20:00 14,7 C 13,3 C 78 % 1011,2 hPa 0,0 l/m 0,00 h 0,00 h 0,0 UV-I 18 W/m 0,6 km/h (0 Bft)
28.04.2014 21:00 13,2 C 11,2 C 85 % 1011,7 hPa 0,0 l/m 0,00 h 0,00 h 0,0 UV-I 0 W/m 0,0 km/h (0 Bft)
28.04.2014 22:00 12,8 C 11,3 C 88 % 1011,9 hPa 0,0 l/m 0,00 h 0,00 h 0,0 UV-I 0 W/m 0,0 km/h (0 Bft)
28.04.2014 23:00 12,3 C 10,9 C 90 % 1012,1 hPa 0,0 l/m 0,00 h 0,00 h 0,0 UV-I 0 W/m 0,0 km/h (0 Bft)
29.04.2014 00:00 12,4 C 11,1 C 91 % 1012,2 hPa 0,0 l/m 0,00 h 0,00 h 0,0 UV-I 0 W/m 0,0 km/h (0 Bft)
29.04.2014 01:00 12,6 C 11,7 C 91 % 1012,1 hPa 0,0 l/m 0,00 h 0,00 h 0,0 UV-I 0 W/m 0,0 km/h (0 Bft)
29.04.2014 02:00 12,6 C 11,2 C 93 % 1011,9 hPa 0,4 l/m 0,00 h 0,83 h 0,0 UV-I 0 W/m 0,0 km/h (0 Bft)
29.04.2014 03:00 12,2 C 11,1 C 96 % 1011,8 hPa 0,2 l/m 0,00 h 0,50 h 0,0 UV-I 0 W/m 0,0 km/h (0 Bft)
29.04.2014 04:00 12,2 C 11,1 C 97 % 1011,7 hPa 0,6 l/m 0,00 h 0,95 h 0,0 UV-I 0 W/m 0,0 km/h (0 Bft)
29.04.2014 05:00 12,1 C 11,1 C 98 % 1011,5 hPa 0,0 l/m 0,00 h 0,50 h 0,0 UV-I 0 W/m 0,0 km/h (0 Bft)
29.04.2014 06:00 12,1 C 11,1 C 98 % 1011,4 hPa 0,2 l/m 0,00 h 0,37 h 0,0 UV-I 0 W/m 0,0 km/h (0 Bft)
29.04.2014 07:00 12,2 C 11,1 C 99 % 1011,6 hPa 2,4 l/m 0,00 h 0,97 h 0,0 UV-I 11 W/m 0,0 km/h (0 Bft)
29.04.2014 08:00 12,6 C 11,9 C 99 % 1011,6 hPa 0,2 l/m 0,00 h 0,30 h 0,0 UV-I 64 W/m 0,0 km/h (0 Bft)
29.04.2014 09:00 13,0 C 12,3 C 99 % 1011,7 hPa 0,0 l/m 0,00 h 0,13 h 0,0 UV-I 70 W/m 0,0 km/h (0 Bft)
29.04.2014 10:00 13,0 C 12,2 C 99 % 1011,9 hPa 0,0 l/m 0,00 h 0,10 h 0,0 UV-I 37 W/m 0,0 km/h (0 Bft)
29.04.2014 11:00 12,9 C 12,1 C 99 % 1012,1 hPa 0,2 l/m 0,00 h 0,87 h 0,0 UV-I 63 W/m 0,6 km/h (0 Bft)
29.04.2014 12:00 13,1 C 12,4 C 99 % 1012,0 hPa 0,0 l/m 0,00 h 0,00 h 0,0 UV-I 103 W/m 2,0 km/h (1 Bft)
29.04.2014 13:00 13,1 C 12,0 C 97 % 1012,0 hPa 0,0 l/m 0,00 h 0,20 h 0,0 UV-I 78 W/m 4,0 km/h (1 Bft)
29.04.2014 14:00 12,7 C 11,6 C 96 % 1012,1 hPa 0,6 l/m 0,00 h 0,73 h 0,0 UV-I 72 W/m 4,8 km/h (1 Bft)
29.04.2014 15:00 12,7 C 11,8 C 95 % 1011,9 hPa 0,0 l/m 0,00 h 0,07 h 0,0 UV-I 107 W/m 2,2 km/h (1 Bft)
29.04.2014 16:00 13,1 C 12,1 C 92 % 1011,6 hPa 0,0 l/m 0,00 h 0,00 h 0,0 UV-I 184 W/m 4,9 km/h (1 Bft)
29.04.2014 17:00 13,7 C 12,4 C 90 % 1011,5 hPa 0,0 l/m 0,00 h 0,00 h 0,0 UV-I 107 W/m 1,2 km/h (1 Bft)
29.04.2014 18:00 14,2 C 13,1 C 90 % 1011,1 hPa 0,0 l/m 0,00 h 0,00 h 0,0 UV-I 143 W/m 1,7 km/h (1 Bft)
29.04.2014 19:00 14,2 C 13,1 C 90 % 1010,7 hPa 0,0 l/m 0,00 h 0,00 h 0,0 UV-I 70 W/m 1,2 km/h (1 Bft)
29.04.2014 20:00 13,9 C 12,5 C 92 % 1010,9 hPa 0,0 l/m 0,00 h 0,00 h 0,0 UV-I 12 W/m 0,0 km/h (0 Bft)
29.04.2014 21:00 13,5 C 12,2 C 94 % 1011,2 hPa 0,0 l/m 0,00 h 0,00 h 0,0 UV-I 0 W/m 0,0 km/h (0 Bft)
29.04.2014 22:00 13,2 C 12,1 C 95 % 1011,3 hPa 0,0 l/m 0,00 h 0,00 h 0,0 UV-I 0 W/m 0,0 km/h (0 Bft)
29.04.2014 23:00 13,0 C 11,7 C 95 % 1011,1 hPa 0,0 l/m 0,00 h 0,00 h 0,0 UV-I 0 W/m 0,0 km/h (0 Bft)
30.04.2014 00:00 12,6 C 11,3 C 96 % 1010,8 hPa 0,0 l/m 0,00 h 0,00 h 0,0 UV-I 0 W/m 0,0 km/h (0 Bft)
30.04.2014 01:00 12,0 C 10,5 C 97 % 1010,5 hPa 0,0 l/m 0,00 h 0,00 h 0,0 UV-I 0 W/m 0,0 km/h (0 Bft)
30.04.2014 02:00 11,7 C 10,6 C 98 % 1010,2 hPa 0,0 l/m 0,00 h 0,00 h 0,0 UV-I 0 W/m 0,0 km/h (0 Bft)
30.04.2014 03:00 11,3 C 10,3 C 98 % 1010,1 hPa 0,0 l/m 0,00 h 0,03 h 0,0 UV-I 0 W/m 0,0 km/h (0 Bft)
30.04.2014 04:00 11,3 C 10,3 C 99 % 1010,1 hPa 0,0 l/m 0,00 h 0,00 h 0,0 UV-I 0 W/m 0,0 km/h (0 Bft)
30.04.2014 05:00 11,5 C 10,6 C 99 % 1009,9 hPa 0,0 l/m 0,00 h 0,23 h 0,0 UV-I 0 W/m 0,0 km/h (0 Bft)
30.04.2014 06:00 11,6 C 10,6 C 99 % 1009,9 hPa 0,0 l/m 0,00 h 0,67 h 0,0 UV-I 8 W/m 0,0 km/h (0 Bft)
30.04.2014 07:00 12,0 C 11,1 C 99 % 1010,2 hPa 0,0 l/m 0,00 h 0,00 h 0,0 UV-I 23 W/m 0,0 km/h (0 Bft)
30.04.2014 08:00 12,5 C 12,0 C 100 % 1010,6 hPa 0,0 l/m 0,00 h 0,00 h 0,0 UV-I 77 W/m 0,0 km/h (0 Bft)
30.04.2014 09:00 13,2 C 12,8 C 99 % 1010,8 hPa 0,0 l/m 0,00 h 0,00 h 0,0 UV-I 109 W/m 0,0 km/h (0 Bft)
30.04.2014 10:00 14,2 C 14,1 C 98 % 1011,0 hPa 0,0 l/m 0,13 h 0,00 h 1,0 UV-I 236 W/m 0,5 km/h (0 Bft)
30.04.2014 11:00 15,2 C 15,5 C 91 % 1011,3 hPa 0,0 l/m 0,23 h 0,00 h 0,9 UV-I 282 W/m 4,4 km/h (1 Bft)
30.04.2014 12:00 16,2 C 17,3 C 89 % 1011,4 hPa 0,0 l/m 0,60 h 0,00 h 1,8 UV-I 502 W/m 7,4 km/h (2 Bft)
30.04.2014 13:00 16,5 C 16,8 C 86 % 1011,4 hPa 0,0 l/m 0,00 h 0,00 h 1,1 UV-I 281 W/m 5,0 km/h (1 Bft)
30.04.2014 14:00 17,4 C 18,0 C 83 % 1011,2 hPa 0,0 l/m 0,47 h 0,00 h 1,8 UV-I 459 W/m 6,3 km/h (2 Bft)
30.04.2014 15:00 18,1 C 18,8 C 80 % 1010,9 hPa 0,0 l/m 0,53 h 0,00 h 1,6 UV-I 468 W/m 6,8 km/h (2 Bft)
30.04.2014 16:00 18,8 C 19,1 C 77 % 1010,5 hPa 0,0 l/m 0,80 h 0,00 h 1,3 UV-I 450 W/m 6,8 km/h (2 Bft)
30.04.2014 17:00 17,9 C 17,4 C 79 % 1010,3 hPa 0,0 l/m 0,47 h 0,00 h 0,6 UV-I 254 W/m 7,8 km/h (2 Bft)
30.04.2014 18:00 17,9 C 16,8 C 79 % 1010,1 hPa 0,0 l/m 0,07 h 0,00 h 0,0 UV-I 165 W/m 5,2 km/h (1 Bft)
30.04.2014 19:00 16,8 C 15,5 C 81 % 1010,1 hPa 0,0 l/m 0,00 h 0,00 h 0,0 UV-I 72 W/m 3,2 km/h (1 Bft)
30.04.2014 20:00 15,3 C 13,5 C 86 % 1010,4 hPa 0,0 l/m 0,00 h 0,00 h 0,0 UV-I 17 W/m 0,4 km/h (0 Bft)
30.04.2014 21:00 14,0 C 11,9 C 90 % 1011,1 hPa 0,0 l/m 0,00 h 0,00 h 0,0 UV-I 0 W/m 0,0 km/h (0 Bft)
30.04.2014 22:00 13,2 C 11,2 C 92 % 1011,6 hPa 0,0 l/m 0,00 h 0,00 h 0,0 UV-I 0 W/m 0,0 km/h (0 Bft)
30.04.2014 23:00 13,2 C 11,7 C 92 % 1011,7 hPa 0,0 l/m 0,00 h 0,00 h 0,0 UV-I 0 W/m 0,0 km/h (0 Bft)
01.05.2014 00:00 12,8 C 11,6 C 93 % 1011,7 hPa 0,0 l/m 0,00 h 0,00 h 0,0 UV-I 0 W/m 0,0 km/h (0 Bft)
01.05.2014 01:00 12,2 C 11,1 C 93 % 1011,6 hPa 0,0 l/m 0,00 h 0,00 h 0,0 UV-I 0 W/m 0,4 km/h (0 Bft)
01.05.2014 02:00 11,7 C 10,7 C 94 % 1011,5 hPa 0,0 l/m 0,00 h 0,00 h 0,0 UV-I 0 W/m 0,7 km/h (0 Bft)
01.05.2014 03:00 11,2 C 10,4 C 95 % 1011,5 hPa 0,0 l/m 0,00 h 0,00 h 0,0 UV-I 0 W/m 0,4 km/h (0 Bft)
01.05.2014 04:00 10,6 C 9,8 C 95 % 1011,2 hPa 0,0 l/m 0,00 h 0,07 h 0,0 UV-I 0 W/m 1,1 km/h (1 Bft)
01.05.2014 05:00 10,1 C 9,1 C 96 % 1010,9 hPa 0,0 l/m 0,00 h 0,00 h 0,0 UV-I 0 W/m 0,4 km/h (0 Bft)
01.05.2014 06:00 9,9 C 8,9 C 96 % 1011,0 hPa 0,0 l/m 0,00 h 0,00 h 0,0 UV-I 15 W/m 0,0 km/h (0 Bft)
01.05.2014 07:00 10,2 C 9,6 C 96 % 1011,3 hPa 0,0 l/m 0,00 h 0,00 h 0,0 UV-I 60 W/m 1,4 km/h (1 Bft)
01.05.2014 08:00 10,8 C 10,8 C 93 % 1011,4 hPa 0,0 l/m 0,10 h 0,00 h 0,0 UV-I 157 W/m 1,3 km/h (1 Bft)
01.05.2014 09:00 11,9 C 12,8 C 89 % 1011,4 hPa 0,0 l/m 0,83 h 0,00 h 0,7 UV-I 364 W/m 0,9 km/h (0 Bft)
01.05.2014 10:00 14,2 C 15,5 C 82 % 1011,4 hPa 0,0 l/m 0,97 h 0,00 h 1,6 UV-I 540 W/m 3,5 km/h (1 Bft)
01.05.2014 11:00 15,8 C 16,6 C 78 % 1011,4 hPa 0,0 l/m 0,90 h 0,00 h 2,3 UV-I 585 W/m 5,2 km/h (1 Bft)
01.05.2014 12:00 17,2 C 18,5 C 73 % 1011,1 hPa 0,0 l/m 0,70 h 0,00 h 2,6 UV-I 543 W/m 6,1 km/h (2 Bft)
01.05.2014 13:00 17,4 C 18,0 C 69 % 1010,6 hPa 0,0 l/m 0,33 h 0,00 h 1,8 UV-I 441 W/m 3,9 km/h (1 Bft)
01.05.2014 14:00 18,1 C 18,7 C 65 % 1010,2 hPa 0,0 l/m 0,50 h 0,00 h 2,4 UV-I 528 W/m 4,4 km/h (1 Bft)
01.05.2014 15:00 18,5 C 18,7 C 64 % 1009,6 hPa 0,0 l/m 0,73 h 0,00 h 2,4 UV-I 584 W/m 6,1 km/h (2 Bft)
01.05.2014 16:00 18,7 C 16,7 C 62 % 1009,0 hPa 0,0 l/m 0,63 h 0,00 h 1,4 UV-I 484 W/m 9,0 km/h (2 Bft)
01.05.2014 17:00 18,6 C 17,2 C 62 % 1008,7 hPa 0,0 l/m 0,20 h 0,00 h 0,6 UV-I 223 W/m 4,9 km/h (1 Bft)
01.05.2014 18:00 17,9 C 16,5 C 63 % 1008,5 hPa 0,0 l/m 0,00 h 0,00 h 0,0 UV-I 75 W/m 2,3 km/h (1 Bft)
01.05.2014 19:00 15,3 C 13,9 C 78 % 1008,9 hPa 0,0 l/m 0,00 h 0,20 h 0,0 UV-I 22 W/m 5,6 km/h (1 Bft)
01.05.2014 20:00 12,9 C 11,3 C 93 % 1009,4 hPa 1,4 l/m 0,00 h 0,97 h 0,0 UV-I 7 W/m 5,0 km/h (1 Bft)
01.05.2014 21:00 12,1 C 10,8 C 96 % 1010,4 hPa 3,6 l/m 0,00 h 0,97 h 0,0 UV-I 0 W/m 4,3 km/h (1 Bft)
01.05.2014 22:00 11,7 C 10,6 C 97 % 1010,6 hPa 3,2 l/m 0,00 h 0,97 h 0,0 UV-I 0 W/m 0,7 km/h (0 Bft)
01.05.2014 23:00 11,8 C 10,6 C 98 % 1010,2 hPa 1,4 l/m 0,00 h 0,97 h 0,0 UV-I 0 W/m 8,9 km/h (2 Bft)
02.05.2014 00:00 11,9 C 10,6 C 97 % 1010,4 hPa 0,0 l/m 0,00 h 0,13 h 0,0 UV-I 0 W/m 1,9 km/h (1 Bft)
02.05.2014 01:00 11,6 C 10,6 C 98 % 1010,8 hPa 0,0 l/m 0,00 h 0,23 h 0,0 UV-I 0 W/m 0,1 km/h (0 Bft)
02.05.2014 02:00 11,4 C 10,5 C 98 % 1010,9 hPa 0,0 l/m 0,00 h 0,00 h 0,0 UV-I 0 W/m 0,0 km/h (0 Bft)
02.05.2014 03:00 11,4 C 10,4 C 98 % 1011,2 hPa 0,0 l/m 0,00 h 0,10 h 0,0 UV-I 0 W/m 1,6 km/h (1 Bft)
02.05.2014 04:00 11,4 C 10,2 C 98 % 1011,4 hPa 0,2 l/m 0,00 h 0,77 h 0,0 UV-I 0 W/m 6,6 km/h (2 Bft)
02.05.2014 05:00 11,1 C 10,0 C 98 % 1011,7 hPa 0,0 l/m 0,00 h 0,53 h 0,0 UV-I 0 W/m 9,6 km/h (2 Bft)
02.05.2014 06:00 10,9 C 10,0 C 98 % 1012,3 hPa 0,0 l/m 0,00 h 0,20 h 0,0 UV-I 6 W/m 7,9 km/h (2 Bft)
02.05.2014 07:00 10,7 C 9,6 C 98 % 1013,1 hPa 0,0 l/m 0,00 h 0,00 h 0,0 UV-I 21 W/m 12,2 km/h (2 Bft)
02.05.2014 08:00 10,0 C 9,1 C 98 % 1013,9 hPa 0,0 l/m 0,00 h 0,00 h 0,0 UV-I 41 W/m 14,7 km/h (3 Bft)
02.05.2014 09:00 10,5 C 10,2 C 95 % 1014,3 hPa 0,0 l/m 0,20 h 0,00 h 0,6 UV-I 222 W/m 13,5 km/h (3 Bft)
02.05.2014 10:00 11,4 C 11,5 C 91 % 1015,1 hPa 0,0 l/m 0,43 h 0,00 h 1,0 UV-I 301 W/m 14,5 km/h (3 Bft)
02.05.2014 11:00 12,1 C 12,2 C 85 % 1015,9 hPa 0,0 l/m 0,20 h 0,00 h 0,9 UV-I 314 W/m 18,6 km/h (3 Bft)
02.05.2014 12:00 11,5 C 11,3 C 85 % 1016,6 hPa 0,0 l/m 0,00 h 0,00 h 0,6 UV-I 205 W/m 17,9 km/h (3 Bft)
02.05.2014 13:00 11,0 C 10,6 C 87 % 1017,0 hPa 0,0 l/m 0,00 h 0,00 h 0,0 UV-I 145 W/m 18,7 km/h (3 Bft)
02.05.2014 14:00 10,9 C 10,6 C 87 % 1017,4 hPa 0,0 l/m 0,00 h 0,00 h 0,6 UV-I 151 W/m 17,9 km/h (3 Bft)
02.05.2014 15:00 10,2 C 9,7 C 88 % 1017,9 hPa 0,0 l/m 0,00 h 0,00 h 0,0 UV-I 112 W/m 20,5 km/h (4 Bft)
02.05.2014 16:00 10,3 C 9,6 C 86 % 1018,3 hPa 0,0 l/m 0,00 h 0,00 h 0,0 UV-I 75 W/m 15,8 km/h (3 Bft)
02.05.2014 17:00 10,3 C 9,4 C 82 % 1018,7 hPa 0,0 l/m 0,00 h 0,00 h 0,0 UV-I 58 W/m 17,7 km/h (3 Bft)
02.05.2014 18:00 10,2 C 9,4 C 79 % 1019,1 hPa 0,0 l/m 0,00 h 0,00 h 0,0 UV-I 48 W/m 16,3 km/h (3 Bft)
02.05.2014 19:00 9,9 C 8,9 C 79 % 1019,7 hPa 0,0 l/m 0,00 h 0,03 h 0,0 UV-I 14 W/m 12,1 km/h (2 Bft)
02.05.2014 20:00 9,1 C 7,2 C 83 % 1020,6 hPa 0,2 l/m 0,00 h 0,70 h 0,0 UV-I 5 W/m 14,3 km/h (3 Bft)
02.05.2014 21:00 8,1 C 6,7 C 85 % 1021,5 hPa 0,0 l/m 0,00 h 0,00 h 0,0 UV-I 0 W/m 9,8 km/h (2 Bft)
02.05.2014 22:00 8,1 C 6,9 C 83 % 1022,0 hPa 0,0 l/m 0,00 h 0,00 h 0,0 UV-I 0 W/m 5,0 km/h (1 Bft)
02.05.2014 23:00 8,2 C 7,2 C 83 % 1022,6 hPa 0,0 l/m 0,00 h 0,00 h 0,0 UV-I 0 W/m 5,9 km/h (2 Bft)
03.05.2014 00:00 8,3 C 7,2 C 84 % 1023,0 hPa 0,0 l/m 0,00 h 0,00 h 0,0 UV-I 0 W/m 6,2 km/h (2 Bft)
03.05.2014 01:00 8,2 C 7,2 C 83 % 1023,1 hPa 0,0 l/m 0,00 h 0,00 h 0,0 UV-I 0 W/m 3,6 km/h (1 Bft)
03.05.2014 02:00 7,9 C 6,9 C 79 % 1023,0 hPa 0,0 l/m 0,00 h 0,00 h 0,0 UV-I 0 W/m 11,4 km/h (2 Bft)
03.05.2014 03:00 7,2 C 6,2 C 78 % 1023,3 hPa 0,0 l/m 0,00 h 0,00 h 0,0 UV-I 0 W/m 10,1 km/h (2 Bft)
03.05.2014 04:00 6,2 C 5,0 C 81 % 1023,5 hPa 0,0 l/m 0,00 h 0,00 h 0,0 UV-I 0 W/m 7,2 km/h (2 Bft)
03.05.2014 05:00 4,9 C 3,8 C 85 % 1023,9 hPa 0,0 l/m 0,00 h 0,00 h 0,0 UV-I 0 W/m 5,7 km/h (1 Bft)
03.05.2014 06:00 4,2 C 3,3 C 89 % 1024,2 hPa 0,0 l/m 0,00 h 0,00 h 0,0 UV-I 15 W/m 2,3 km/h (1 Bft)
03.05.2014 07:00 4,8 C 4,0 C 87 % 1024,5 hPa 0,0 l/m 0,00 h 0,00 h 0,0 UV-I 33 W/m 7,9 km/h (2 Bft)
03.05.2014 08:00 6,5 C 5,4 C 81 % 1024,9 hPa 0,0 l/m 0,73 h 0,00 h 0,0 UV-I 260 W/m 7,4 km/h (2 Bft)
03.05.2014 09:00 8,8 C 9,5 C 71 % 1025,1 hPa 0,0 l/m 0,97 h 0,00 h 0,7 UV-I 456 W/m 12,2 km/h (3 Bft)
03.05.2014 10:00 10,8 C 12,6 C 59 % 1025,1 hPa 0,0 l/m 0,97 h 0,00 h 1,5 UV-I 594 W/m 14,1 km/h (3 Bft)
03.05.2014 11:00 11,9 C 12,5 C 56 % 1025,2 hPa 0,0 l/m 0,97 h 0,00 h 2,3 UV-I 710 W/m 16,9 km/h (3 Bft)
03.05.2014 12:00 12,5 C 13,4 C 56 % 1025,1 hPa 0,0 l/m 0,73 h 0,00 h 2,3 UV-I 701 W/m 16,7 km/h (3 Bft)
03.05.2014 13:00 12,6 C 12,5 C 56 % 1024,8 hPa 0,0 l/m 0,23 h 0,00 h 1,5 UV-I 435 W/m 18,0 km/h (3 Bft)
03.05.2014 14:00 12,9 C 12,7 C 55 % 1024,7 hPa 0,0 l/m 0,20 h 0,00 h 1,6 UV-I 402 W/m 16,9 km/h (3 Bft)
03.05.2014 15:00 13,3 C 13,2 C 56 % 1024,4 hPa 0,0 l/m 0,33 h 0,00 h 1,4 UV-I 417 W/m 19,3 km/h (3 Bft)
03.05.2014 16:00 13,0 C 13,0 C 56 % 1024,3 hPa 0,0 l/m 0,13 h 0,00 h 0,8 UV-I 308 W/m 14,6 km/h (3 Bft)
03.05.2014 17:00 13,0 C 12,6 C 57 % 1024,1 hPa 0,0 l/m 0,23 h 0,00 h 0,8 UV-I 274 W/m 16,1 km/h (3 Bft)
03.05.2014 18:00 13,0 C 12,2 C 57 % 1023,9 hPa 0,0 l/m 0,30 h 0,00 h 0,0 UV-I 179 W/m 14,6 km/h (3 Bft)
03.05.2014 19:00 12,3 C 11,2 C 59 % 1024,0 hPa 0,0 l/m 0,00 h 0,00 h 0,0 UV-I 52 W/m 11,0 km/h (2 Bft)
03.05.2014 20:00 11,2 C 9,7 C 63 % 1024,2 hPa 0,0 l/m 0,00 h 0,00 h 0,0 UV-I 17 W/m 1,3 km/h (1 Bft)
03.05.2014 21:00 9,2 C 6,8 C 74 % 1024,2 hPa 0,0 l/m 0,00 h 0,00 h 0,0 UV-I 0 W/m 0,0 km/h (0 Bft)
03.05.2014 22:00 8,0 C 6,1 C 80 % 1024,5 hPa 0,0 l/m 0,00 h 0,00 h 0,0 UV-I 0 W/m 0,4 km/h (0 Bft)
03.05.2014 23:00 7,6 C 5,6 C 79 % 1024,9 hPa 0,0 l/m 0,00 h 0,00 h 0,0 UV-I 0 W/m 0,3 km/h (0 Bft)
04.05.2014 00:00 6,9 C 5,6 C 81 % 1025,0 hPa 0,0 l/m 0,00 h 0,00 h 0,0 UV-I 0 W/m 0,4 km/h (0 Bft)
04.05.2014 01:00 5,9 C 4,5 C 84 % 1025,0 hPa 0,0 l/m 0,00 h 0,00 h 0,0 UV-I 0 W/m 0,0 km/h (0 Bft)
04.05.2014 02:00 4,7 C 3,1 C 88 % 1024,8 hPa 0,0 l/m 0,00 h 0,00 h 0,0 UV-I 0 W/m 0,0 km/h (0 Bft)
04.05.2014 03:00 3,9 C 2,3 C 91 % 1024,6 hPa 0,0 l/m 0,00 h 0,00 h 0,0 UV-I 0 W/m 0,0 km/h (0 Bft)
04.05.2014 04:00 3,2 C 1,8 C 92 % 1024,4 hPa 0,0 l/m 0,00 h 0,00 h 0,0 UV-I 0 W/m 0,0 km/h (0 Bft)
04.05.2014 05:00 2,7 C 1,3 C 94 % 1024,2 hPa 0,0 l/m 0,00 h 0,00 h 0,0 UV-I 5 W/m 0,0 km/h (0 Bft)
04.05.2014 06:00 2,5 C 1,3 C 95 % 1024,2 hPa 0,0 l/m 0,00 h 0,00 h 0,0 UV-I 20 W/m 0,0 km/h (0 Bft)
04.05.2014 07:00 3,7 C 2,9 C 95 % 1024,4 hPa 0,0 l/m 0,00 h 0,00 h 0,0 UV-I 57 W/m 0,0 km/h (0 Bft)
04.05.2014 08:00 6,2 C 5,4 C 87 % 1024,6 hPa 0,0 l/m 0,77 h 0,00 h 0,0 UV-I 239 W/m 3,7 km/h (1 Bft)
04.05.2014 09:00 8,5 C 9,4 C 79 % 1024,6 hPa 0,0 l/m 0,97 h 0,00 h 0,7 UV-I 437 W/m 6,8 km/h (2 Bft)
04.05.2014 10:00 10,4 C 12,7 C 70 % 1024,5 hPa 0,0 l/m 0,97 h 0,00 h 1,6 UV-I 610 W/m 8,0 km/h (2 Bft)
04.05.2014 11:00 11,5 C 12,8 C 65 % 1024,4 hPa 0,0 l/m 0,90 h 0,00 h 2,5 UV-I 709 W/m 8,4 km/h (2 Bft)
04.05.2014 12:00 11,9 C 13,5 C 62 % 1024,1 hPa 0,0 l/m 0,77 h 0,00 h 2,6 UV-I 757 W/m 9,1 km/h (2 Bft)
04.05.2014 13:00 12,7 C 13,4 C 59 % 1023,6 hPa 0,0 l/m 0,80 h 0,00 h 2,4 UV-I 779 W/m 9,6 km/h (2 Bft)
04.05.2014 14:00 13,4 C 13,7 C 57 % 1023,2 hPa 0,0 l/m 0,80 h 0,00 h 3,1 UV-I 726 W/m 9,0 km/h (2 Bft)
04.05.2014 15:00 13,7 C 13,8 C 56 % 1022,5 hPa 0,0 l/m 0,93 h 0,00 h 2,7 UV-I 695 W/m 9,4 km/h (2 Bft)
04.05.2014 16:00 13,8 C 13,8 C 55 % 1022,0 hPa 0,0 l/m 0,97 h 0,00 h 1,8 UV-I 589 W/m 8,1 km/h (2 Bft)
04.05.2014 17:00 13,6 C 13,0 C 55 % 1021,7 hPa 0,0 l/m 0,87 h 0,00 h 0,9 UV-I 395 W/m 8,9 km/h (2 Bft)
04.05.2014 18:00 13,1 C 12,2 C 57 % 1021,5 hPa 0,0 l/m 0,03 h 0,00 h 0,0 UV-I 162 W/m 7,2 km/h (2 Bft)
04.05.2014 19:00 12,4 C 11,6 C 59 % 1021,2 hPa 0,0 l/m 0,00 h 0,00 h 0,0 UV-I 79 W/m 8,5 km/h (2 Bft)
04.05.2014 20:00 11,4 C 10,3 C 63 % 1021,1 hPa 0,0 l/m 0,00 h 0,00 h 0,0 UV-I 23 W/m 7,5 km/h (2 Bft)
04.05.2014 21:00 10,5 C 8,9 C 67 % 1021,0 hPa 0,0 l/m 0,00 h 0,00 h 0,0 UV-I 0 W/m 0,2 km/h (0 Bft)
04.05.2014 22:00 9,8 C 8,2 C 71 % 1021,0 hPa 0,0 l/m 0,00 h 0,00 h 0,0 UV-I 0 W/m 0,1 km/h (0 Bft)
04.05.2014 23:00 9,3 C 7,9 C 73 % 1020,9 hPa 0,0 l/m 0,00 h 0,00 h 0,0 UV-I 0 W/m 0,1 km/h (0 Bft)
Min-Datum _ 04.05.14 04.05.14 03.05.14 28.04.14 - - - - - 28.04.14
_ Min-Zeit 05:58 05:14 15:08 00:00 - - - - - 00:00
Minimum _ 2,4 C 1,1 C 51 % 1008,3 hPa - - - - - 0,0 km/h (0 Bft)
Max-Datum _ 01.05.14 28.04.14 30.04.14 03.05.14 01.05.14 28.04.14 28.04.14 04.05.14 04.05.14 02.05.14
_ Max-Zeit 15:46 14:54 08:24 10:58 21:54 08:44 18:06 13:56 12:30 13:36
Maximum _ 19,6 C 20,0 C 100 % 1025,4 hPa 3,6 l/m 0,03 h 0,03 h 3,7 UV-I 1005 W/m 33,5 km/h
NW (5 Bft)
Durchschnitt _ 11,9 C 11,2 C 84 % 1015,2 hPa #14,8 l/m #28:06 h #14:23 h 1,5 UV-I 243 W/m 4,9 km/h (1 Bft)
© 2014 W. Hausmann